Decoded Metar for LFMO (ORANGE in FRANCE) (IATA:N/A) | Meteo·Mobile Aviation Weather
aviador You're here:

LFMO Decoded Metar

ORANGE in FRANCE
Report Time2019-01-19 06:00:00
UTC Time2019-01-19 06:31:55
Flight Rules vfr VFR
WindCalm
Visibility9999 m
Phenomena:N/A
Clouds:N/A
Expected CloudBase > 400 ft AGL from Temp-Dew spread
CeilingNone
Temp-3°C (ISA -18)
Dew Point-4°C (93% RH)
AAT-5.5°C
QNH1014 hPa
Density Alt-1,962 ft
Elevation180 ft
Report Wrong Elevation
Raw Report
LFMO 190600Z AUTO 00000KT CAVOK M03/M04 Q1014 NOSIG=

Extra information for LFMO:More info

Metar Taf Metar & Taf Last 4 Metars F.Rules Stats Wind Profile Meteogram Temp Stats Airport Information Weather charts Add Link Nearby VenuesMetar ALERT Operation Metar Decoded Social comments